createdAt,value
2022-08-19T00:01:56.955Z,97741.22
2022-08-19T00:04:28.450Z,97747.50
2022-08-19T00:06:56.061Z,97746.28
2022-08-19T00:09:25.009Z,97746.69
2022-08-19T00:11:54.275Z,97749.16
2022-08-19T00:14:21.866Z,97741.19
2022-08-19T00:16:50.046Z,97736.81
2022-08-19T00:19:17.579Z,97737.03
2022-08-19T00:21:45.058Z,97736.41
2022-08-19T00:24:14.384Z,97737.47
2022-08-19T00:26:42.906Z,97750.63
2022-08-19T00:29:13.880Z,97749.41
2022-08-19T00:31:43.300Z,97754.00
2022-08-19T00:34:14.827Z,97756.50
2022-08-19T00:36:43.865Z,97754.78
2022-08-19T00:39:11.143Z,97747.22
2022-08-19T00:41:38.894Z,97746.81
2022-08-19T00:44:18.125Z,97748.25
2022-08-19T00:46:55.197Z,97740.81
2022-08-19T00:49:46.902Z,97747.22
2022-08-19T00:52:17.754Z,97742.19
2022-08-19T00:54:52.618Z,97740.38
2022-08-19T00:57:24.407Z,97737.84
2022-08-19T01:00:02.247Z,97737.59
2022-08-19T01:02:32.166Z,97734.00
2022-08-19T01:05:02.854Z,97733.78
2022-08-19T01:07:37.726Z,97736.31
2022-08-19T01:10:10.279Z,97736.72
2022-08-19T01:12:38.368Z,97739.66
2022-08-19T01:15:09.242Z,97736.13
2022-08-19T01:17:41.305Z,97732.56
2022-08-19T01:20:16.201Z,97737.72
2022-08-19T01:22:47.977Z,97733.50
2022-08-19T01:25:17.238Z,97736.06
2022-08-19T01:27:49.962Z,97734.41
2022-08-19T01:30:25.455Z,97732.09
2022-08-19T01:32:54.833Z,97739.31
2022-08-19T01:35:24.662Z,97735.72
2022-08-19T01:38:00.929Z,97743.75
2022-08-19T01:40:31.899Z,97734.50
2022-08-19T01:42:59.577Z,97732.81
2022-08-19T01:45:29.998Z,97720.41
2022-08-19T01:48:01.427Z,97713.88
2022-08-19T01:50:34.963Z,97715.81
2022-08-19T01:53:06.522Z,97719.00
2022-08-19T01:55:42.202Z,97720.91
2022-08-19T01:58:16.108Z,97714.78
2022-08-19T02:00:44.902Z,97727.03
2022-08-19T02:03:12.538Z,97729.75
2022-08-19T02:05:41.405Z,97727.81
2022-08-19T02:08:09.529Z,97718.13
2022-08-19T02:10:42.257Z,97722.56
2022-08-19T02:13:10.535Z,97718.38
2022-08-19T02:15:38.422Z,97721.94
2022-08-19T02:18:06.483Z,97715.81
2022-08-19T02:20:34.355Z,97715.41
2022-08-19T02:23:02.410Z,97719.41
2022-08-19T02:25:29.408Z,97716.91
2022-08-19T02:27:57.375Z,97729.13
2022-08-19T02:30:25.643Z,97721.56
2022-08-19T02:32:54.186Z,97716.50
2022-08-19T02:35:23.101Z,97734.59
2022-08-19T02:38:09.195Z,97728.50
2022-08-19T02:40:37.902Z,97729.94
2022-08-19T02:43:08.420Z,97732.47
2022-08-19T02:45:41.311Z,97731.84
2022-08-19T02:48:14.851Z,97729.72
2022-08-19T02:50:58.250Z,97742.19
2022-08-19T02:53:28.703Z,97734.59
2022-08-19T02:55:56.852Z,97739.84
2022-08-19T02:58:25.396Z,97737.53
2022-08-19T03:00:55.509Z,97749.34
2022-08-19T03:03:22.973Z,97757.75
2022-08-19T03:05:56.090Z,97752.91
2022-08-19T03:08:25.423Z,97757.31
2022-08-19T03:10:54.452Z,97749.31
2022-08-19T03:13:24.397Z,97747.63
2022-08-19T03:15:51.356Z,97747.22
2022-08-19T03:18:19.500Z,97749.72
2022-08-19T03:20:52.961Z,97754.38
2022-08-19T03:23:21.064Z,97753.53
2022-08-19T03:25:58.217Z,97760.47
2022-08-19T03:28:32.399Z,97761.91
2022-08-19T03:31:41.687Z,97772.03
2022-08-19T03:33:56.791Z,97768.00
2022-08-19T03:36:26.798Z,97764.88
2022-08-19T03:39:00.803Z,97767.84
2022-08-19T03:41:44.682Z,97766.75
2022-08-19T03:44:17.730Z,97761.28
2022-08-19T03:46:53.721Z,97768.47
2022-08-19T03:49:27.128Z,97776.69
2022-08-19T03:51:58.806Z,97782.38
2022-08-19T03:54:26.933Z,97778.78
2022-08-19T03:56:56.126Z,97783.22
2022-08-19T03:59:30.913Z,97787.22
2022-08-19T04:01:59.944Z,97786.81
2022-08-19T04:04:29.274Z,97792.72
2022-08-19T04:06:58.644Z,97794.41
2022-08-19T04:09:25.719Z,97799.66
2022-08-19T04:11:55.219Z,97801.13
2022-08-19T04:14:25.895Z,97802.00
2022-08-19T04:16:54.303Z,97798.38
2022-08-19T04:19:21.706Z,97800.25
2022-08-19T04:21:52.843Z,97809.31
2022-08-19T04:24:21.650Z,97813.75
2022-08-19T04:26:48.942Z,97818.38
2022-08-19T04:29:26.854Z,97821.53
2022-08-19T04:31:56.766Z,97816.72
2022-08-19T04:34:26.971Z,97820.09
2022-08-19T04:36:58.323Z,97820.09
2022-08-19T04:39:50.575Z,97821.78
2022-08-19T04:42:37.571Z,97823.91
2022-08-19T04:45:12.329Z,97829.38
2022-08-19T04:47:47.119Z,97832.97
2022-08-19T04:50:20.316Z,97831.94
2022-08-19T04:52:47.348Z,97822.28
2022-08-19T04:55:15.429Z,97822.72
2022-08-19T04:57:42.794Z,97823.56
2022-08-19T05:00:11.208Z,97821.44
2022-08-19T05:02:39.001Z,97820.63
2022-08-19T05:05:08.274Z,97814.69
2022-08-19T05:07:35.656Z,97829.03
2022-08-19T05:10:06.090Z,97823.13
2022-08-19T05:12:33.950Z,97821.44
2022-08-19T05:15:01.850Z,97824.41
2022-08-19T05:17:32.401Z,97822.69
2022-08-19T05:20:24.218Z,97827.97
2022-08-19T05:22:51.666Z,97826.28
2022-08-19T05:25:21.398Z,97822.44
2022-08-19T05:27:49.441Z,97823.91
2022-08-19T05:30:18.824Z,97827.91
2022-08-19T05:33:01.357Z,97828.69
2022-08-19T05:35:30.149Z,97829.72
2022-08-19T05:38:02.263Z,97823.75
2022-08-19T05:40:29.704Z,97833.03
2022-08-19T05:42:57.307Z,97834.69
2022-08-19T05:45:24.272Z,97826.69
2022-08-19T05:47:51.636Z,97828.75
2022-08-19T05:50:18.879Z,97833.38
2022-08-19T05:52:50.712Z,97837.97
2022-08-19T05:55:18.273Z,97825.00
2022-08-19T05:57:45.834Z,97834.44
2022-08-19T06:00:14.518Z,97825.31
2022-08-19T06:02:42.009Z,97835.13
2022-08-19T06:05:10.953Z,97835.94
2022-08-19T06:07:39.314Z,97839.03
2022-08-19T06:10:09.153Z,97830.09
2022-08-19T06:12:39.725Z,97834.50
2022-08-19T06:15:14.582Z,97837.78
2022-08-19T06:17:43.246Z,97839.00
2022-08-19T06:20:14.290Z,97843.75
2022-08-19T06:22:44.299Z,97835.44
2022-08-19T06:25:12.743Z,97845.28
2022-08-19T06:28:11.633Z,97844.63
2022-08-19T06:30:28.508Z,97848.75
2022-08-19T06:32:55.490Z,97850.88
2022-08-19T06:35:22.817Z,97853.53
2022-08-19T06:37:50.068Z,97845.59
2022-08-19T06:40:17.387Z,97847.97
2022-08-19T06:42:54.321Z,97838.13
2022-08-19T06:45:34.801Z,97850.16
2022-08-19T06:48:04.133Z,97848.94
2022-08-19T06:50:31.356Z,97845.94
2022-08-19T06:52:58.679Z,97840.81
2022-08-19T06:55:33.614Z,97841.66
2022-08-19T06:58:04.638Z,97842.53
2022-08-19T07:00:32.553Z,97842.69
2022-08-19T07:03:04.552Z,97835.41
2022-08-19T07:05:41.119Z,97831.69
2022-08-19T07:08:14.056Z,97834.44
2022-08-19T07:10:45.628Z,97840.38
2022-08-19T07:13:13.056Z,97826.00
2022-08-19T07:15:40.539Z,97830.13
2022-08-19T07:18:08.085Z,97838.03
2022-08-19T07:20:41.983Z,97832.41
2022-08-19T07:23:12.044Z,97839.72
2022-08-19T07:25:44.538Z,97841.47
2022-08-19T07:28:23.071Z,97841.69
2022-08-19T07:30:52.812Z,97850.53
2022-08-19T07:33:20.696Z,97837.88
2022-08-19T07:35:48.099Z,97832.06
2022-08-19T07:38:16.390Z,97845.06
2022-08-19T07:40:47.488Z,97832.59
2022-08-19T07:43:17.776Z,97836.69
2022-08-19T07:45:46.387Z,97839.75
2022-08-19T07:48:14.425Z,97844.94
2022-08-19T07:50:41.960Z,97840.16
2022-08-19T07:53:08.900Z,97843.91
2022-08-19T07:55:41.264Z,97837.03
2022-08-19T07:58:13.491Z,97832.84
2022-08-19T08:00:42.092Z,97829.09
2022-08-19T08:03:10.241Z,97838.13
2022-08-19T08:05:56.296Z,97831.59
2022-08-19T08:08:44.382Z,97826.97
2022-08-19T08:11:15.986Z,97826.31
2022-08-19T08:13:44.572Z,97821.25
2022-08-19T08:16:14.397Z,97803.84
2022-08-19T08:18:50.471Z,97824.22
2022-08-19T08:21:17.943Z,97814.22
2022-08-19T08:23:45.370Z,97810.72
2022-08-19T08:26:15.939Z,97807.78
2022-08-19T08:28:49.463Z,97805.63
2022-08-19T08:31:17.522Z,97812.94
2022-08-19T08:33:44.661Z,97800.78
2022-08-19T08:36:14.746Z,97811.13
2022-08-19T08:38:44.392Z,97800.94
2022-08-19T08:41:14.493Z,97794.34
2022-08-19T08:43:45.190Z,97794.09
2022-08-19T08:46:41.153Z,97796.19
2022-08-19T08:49:34.777Z,97799.28
2022-08-19T08:52:08.004Z,97797.38
2022-08-19T08:54:48.940Z,97791.59
2022-08-19T08:57:43.539Z,97789.41
2022-08-19T09:00:21.017Z,97782.78
2022-08-19T09:02:51.006Z,97793.16
2022-08-19T09:05:25.764Z,97785.94
2022-08-19T09:08:01.725Z,97778.69
2022-08-19T09:10:45.425Z,97767.03
2022-08-19T09:13:28.574Z,97768.97
2022-08-19T09:16:12.545Z,97762.88
2022-08-19T09:18:54.480Z,97760.97
2022-08-19T09:21:30.565Z,97766.81
2022-08-19T09:24:00.997Z,97754.59
2022-08-19T09:26:47.243Z,97756.50
2022-08-19T09:29:22.561Z,97753.72
2022-08-19T09:31:51.247Z,97751.75
2022-08-19T09:34:22.141Z,97745.34
2022-08-19T09:36:54.822Z,97745.34
2022-08-19T09:39:23.257Z,97741.44
2022-08-19T09:41:51.157Z,97734.78
2022-08-19T09:44:21.932Z,97720.00
2022-08-19T09:46:49.499Z,97727.53
2022-08-19T09:49:19.087Z,97727.81
2022-08-19T09:51:51.365Z,97728.31
2022-08-19T09:54:23.667Z,97722.69
2022-08-19T09:56:55.087Z,97727.09
2022-08-19T09:59:22.600Z,97718.72
2022-08-19T10:01:50.620Z,97720.38
2022-08-19T10:04:20.477Z,97706.44
2022-08-19T10:06:51.826Z,97708.97
2022-08-19T10:09:26.099Z,97702.50
2022-08-19T10:12:02.861Z,97694.06
2022-08-19T10:14:30.276Z,97682.31
2022-08-19T10:16:59.274Z,97678.34
2022-08-19T10:19:26.979Z,97679.94
2022-08-19T10:21:55.674Z,97684.09
2022-08-19T10:24:29.071Z,97673.72
2022-08-19T10:26:58.923Z,97666.41
2022-08-19T10:29:32.654Z,97661.28
2022-08-19T10:32:09.527Z,97657.59
2022-08-19T10:34:48.076Z,97654.13
2022-08-19T10:37:23.542Z,97654.28
2022-08-19T10:39:51.852Z,97659.13
2022-08-19T10:42:21.835Z,97644.53
2022-08-19T10:44:49.406Z,97639.94
2022-08-19T10:47:25.927Z,97630.66
2022-08-19T10:50:14.559Z,97634.66
2022-08-19T10:52:49.145Z,97632.50
2022-08-19T10:55:43.503Z,97637.34
2022-08-19T10:58:15.844Z,97622.34
2022-08-19T11:00:44.842Z,97621.03
2022-08-19T11:03:12.169Z,97620.59
2022-08-19T11:05:40.690Z,97612.31
2022-08-19T11:08:22.673Z,97608.25
2022-08-19T11:10:54.737Z,97606.00
2022-08-19T11:13:24.608Z,97600.97
2022-08-19T11:16:16.216Z,97603.41
2022-08-19T11:18:48.013Z,97599.25
2022-08-19T11:21:25.981Z,97595.84
2022-08-19T11:23:56.649Z,97597.91
2022-08-19T11:26:24.361Z,97585.16
2022-08-19T11:28:55.225Z,97592.09
2022-08-19T11:31:30.588Z,97588.34
2022-08-19T11:34:00.839Z,97576.75
2022-08-19T11:36:28.581Z,97576.28
2022-08-19T11:38:57.199Z,97567.34
2022-08-19T11:41:25.506Z,97564.53
2022-08-19T11:43:56.182Z,97549.00
2022-08-19T11:46:26.177Z,97556.50
2022-08-19T11:48:53.740Z,97548.44
2022-08-19T11:51:25.546Z,97548.63
2022-08-19T11:53:54.369Z,97540.94
2022-08-19T11:56:22.490Z,97540.00
2022-08-19T11:58:50.291Z,97532.84
2022-08-19T12:01:21.435Z,97538.66
2022-08-19T12:03:50.969Z,97535.25
2022-08-19T12:06:27.327Z,97541.03
2022-08-19T12:08:55.116Z,97530.28
2022-08-19T12:11:22.604Z,97520.66
2022-08-19T12:13:50.110Z,97518.34
2022-08-19T12:16:22.632Z,97519.25
2022-08-19T12:18:52.890Z,97516.59
2022-08-19T12:21:23.745Z,97514.81
2022-08-19T12:23:55.634Z,97514.22
2022-08-19T12:26:25.167Z,97516.25
2022-08-19T12:28:52.644Z,97510.94
2022-08-19T12:31:20.829Z,97510.78
2022-08-19T12:33:49.410Z,97508.03
2022-08-19T12:36:18.532Z,97507.25
2022-08-19T12:38:46.270Z,97508.28
2022-08-19T12:41:20.595Z,97498.88
2022-08-19T12:43:49.297Z,97497.63
2022-08-19T12:46:17.564Z,97491.66
2022-08-19T12:48:46.999Z,97489.53
2022-08-19T12:51:20.664Z,97484.47
2022-08-19T12:53:49.792Z,97482.44
2022-08-19T12:56:20.046Z,97483.91
2022-08-19T12:58:51.048Z,97478.91
2022-08-19T13:01:23.235Z,97472.19
2022-08-19T13:03:54.194Z,97469.50
2022-08-19T13:06:22.482Z,97469.38
2022-08-19T13:08:49.570Z,97466.59
2022-08-19T13:11:19.932Z,97464.22
2022-08-19T13:13:50.760Z,97457.09
2022-08-19T13:16:19.356Z,97447.28
2022-08-19T13:18:57.699Z,97451.88
2022-08-19T13:21:28.843Z,97444.94
2022-08-19T13:23:56.793Z,97444.94
2022-08-19T13:26:24.841Z,97450.47
2022-08-19T13:29:10.677Z,97451.09
2022-08-19T13:32:00.257Z,97447.75
2022-08-19T13:34:34.943Z,97446.63
2022-08-19T13:37:06.847Z,97441.25
2022-08-19T13:39:35.224Z,97448.16
2022-08-19T13:42:03.051Z,97438.88
2022-08-19T13:44:31.139Z,97440.13
2022-08-19T13:47:07.338Z,97445.28
2022-08-19T13:49:38.081Z,97435.56
2022-08-19T13:52:06.788Z,97431.69
2022-08-19T13:54:34.336Z,97428.91
2022-08-19T13:57:01.811Z,97427.47
2022-08-19T13:59:29.040Z,97427.53
2022-08-19T14:02:00.544Z,97422.81
2022-08-19T14:04:30.623Z,97426.41
2022-08-19T14:06:57.618Z,97414.06
2022-08-19T14:09:25.195Z,97408.00
2022-08-19T14:11:52.909Z,97410.22
2022-08-19T14:14:20.119Z,97414.72
2022-08-19T14:16:47.166Z,97406.50
2022-08-19T14:19:14.774Z,97411.69
2022-08-19T14:21:42.267Z,97404.94
2022-08-19T14:24:09.968Z,97402.03
2022-08-19T14:26:37.299Z,97408.50
2022-08-19T14:29:06.250Z,97398.66
2022-08-19T14:31:33.215Z,97399.78
2022-08-19T14:34:01.173Z,97392.13
2022-08-19T14:36:28.133Z,97389.22
2022-08-19T14:38:55.842Z,97379.78
2022-08-19T14:41:24.495Z,97382.28
2022-08-19T14:43:53.309Z,97380.41
2022-08-19T14:46:22.773Z,97377.66
2022-08-19T14:48:52.574Z,97371.94
2022-08-19T14:51:21.214Z,97366.47
2022-08-19T14:53:52.869Z,97364.34
2022-08-19T14:56:25.290Z,97361.53
2022-08-19T14:58:53.624Z,97357.56
2022-08-19T15:01:23.203Z,97357.56
2022-08-19T15:03:50.669Z,97358.41
2022-08-19T15:06:17.848Z,97356.78
2022-08-19T15:08:45.983Z,97358.91
2022-08-19T15:11:21.287Z,97363.22
2022-08-19T15:13:49.205Z,97354.94
2022-08-19T15:16:18.394Z,97358.59
2022-08-19T15:18:47.628Z,97354.09
2022-08-19T15:21:26.500Z,97352.13
2022-08-19T15:23:57.742Z,97349.97
2022-08-19T15:26:26.819Z,97349.91
2022-08-19T15:28:54.306Z,97351.81
2022-08-19T15:31:28.736Z,97347.28
2022-08-19T15:33:58.814Z,97347.75
2022-08-19T15:36:27.419Z,97340.06
2022-08-19T15:38:58.630Z,97345.94
2022-08-19T15:41:30.815Z,97339.75
2022-08-19T15:44:04.767Z,97347.97
2022-08-19T15:46:34.093Z,97338.34
2022-08-19T15:49:01.689Z,97328.25
2022-08-19T15:51:32.629Z,97325.97
2022-08-19T15:54:00.435Z,97331.13
2022-08-19T15:56:58.282Z,97329.47
2022-08-19T15:59:47.095Z,97330.19
2022-08-19T16:02:35.205Z,97321.00
2022-08-19T16:05:26.552Z,97323.38
2022-08-19T16:07:55.178Z,97326.78
2022-08-19T16:10:27.420Z,97327.31
2022-08-19T16:12:58.046Z,97332.78
2022-08-19T16:15:30.639Z,97325.66
2022-08-19T16:17:58.875Z,97332.31
2022-08-19T16:20:27.991Z,97324.53
2022-08-19T16:22:58.299Z,97324.31
2022-08-19T16:25:29.066Z,97325.41
2022-08-19T16:28:07.778Z,97325.34
2022-08-19T16:30:41.336Z,97314.94
2022-08-19T16:33:10.071Z,97325.13
2022-08-19T16:35:37.887Z,97341.41
2022-08-19T16:38:07.201Z,97329.94
2022-08-19T16:40:34.960Z,97325.94
2022-08-19T16:43:03.052Z,97333.16
2022-08-19T16:45:30.784Z,97339.78
2022-08-19T16:47:58.341Z,97343.00
2022-08-19T16:50:45.823Z,97336.09
2022-08-19T16:53:13.364Z,97334.16
2022-08-19T16:55:41.280Z,97328.56
2022-08-19T16:58:08.549Z,97334.50
2022-08-19T17:00:39.104Z,97328.69
2022-08-19T17:03:14.670Z,97334.59
2022-08-19T17:06:03.848Z,97336.56
2022-08-19T17:08:32.682Z,97344.94
2022-08-19T17:11:17.005Z,97337.75
2022-08-19T17:13:47.594Z,97338.56
2022-08-19T17:16:16.602Z,97342.81
2022-08-19T17:18:44.233Z,97331.81
2022-08-19T17:21:13.485Z,97339.28
2022-08-19T17:23:42.942Z,97332.75
2022-08-19T17:26:18.065Z,97339.44
2022-08-19T17:28:49.926Z,97338.00
2022-08-19T17:31:21.668Z,97348.94
2022-08-19T17:33:50.022Z,97349.28
2022-08-19T17:36:19.486Z,97354.63
2022-08-19T17:38:47.404Z,97356.97
2022-08-19T17:41:14.419Z,97358.16
2022-08-19T17:43:43.948Z,97369.84
2022-08-19T17:46:17.727Z,97370.78
2022-08-19T17:48:52.199Z,97379.56
2022-08-19T17:51:42.184Z,97386.34
2022-08-19T17:54:14.099Z,97390.59
2022-08-19T17:56:42.734Z,97403.16
2022-08-19T17:59:13.972Z,97409.91
2022-08-19T18:01:53.441Z,97401.63
2022-08-19T18:04:26.147Z,97414.47
2022-08-19T18:06:55.721Z,97421.66
2022-08-19T18:09:27.269Z,97422.13
2022-08-19T18:11:57.878Z,97409.81
2022-08-19T18:14:33.643Z,97413.59
2022-08-19T18:17:06.521Z,97414.22
2022-08-19T18:19:42.092Z,97423.69
2022-08-19T18:22:30.988Z,97437.38
2022-08-19T18:24:58.851Z,97435.75
2022-08-19T18:27:27.881Z,97441.59
2022-08-19T18:30:00.043Z,97444.34
2022-08-19T18:32:33.735Z,97444.66
2022-08-19T18:35:10.905Z,97449.47
2022-08-19T18:37:42.086Z,97447.84
2022-08-19T18:40:32.458Z,97443.66
2022-08-19T18:43:22.951Z,97441.44
2022-08-19T18:46:10.406Z,97443.44
2022-08-19T18:48:57.477Z,97442.38
2022-08-19T18:51:28.577Z,97451.03
2022-08-19T18:53:59.033Z,97447.13
2022-08-19T18:56:29.697Z,97444.94
2022-08-19T18:58:56.958Z,97445.22
2022-08-19T19:01:37.238Z,97445.19
2022-08-19T19:04:10.702Z,97444.09
2022-08-19T19:06:41.502Z,97449.13
2022-08-19T19:09:13.032Z,97450.25
2022-08-19T19:11:46.885Z,97448.56
2022-08-19T19:14:45.797Z,97457.44
2022-08-19T19:17:14.378Z,97450.47
2022-08-19T19:19:42.993Z,97448.00
2022-08-19T19:22:12.999Z,97447.13
2022-08-19T19:24:46.976Z,97446.88
2022-08-19T19:27:18.503Z,97452.38
2022-08-19T19:29:51.133Z,97450.59
2022-08-19T19:32:36.899Z,97457.81
2022-08-19T19:35:07.740Z,97457.78
2022-08-19T19:37:34.960Z,97447.22
2022-08-19T19:40:02.779Z,97454.22
2022-08-19T19:42:29.759Z,97457.06
2022-08-19T19:44:59.292Z,97459.03
2022-08-19T19:47:28.565Z,97464.78
2022-08-19T19:50:15.092Z,97468.91
2022-08-19T19:52:46.827Z,97469.13
2022-08-19T19:55:15.720Z,97469.09
2022-08-19T19:57:42.674Z,97470.66
2022-08-19T20:00:12.943Z,97471.22
2022-08-19T20:02:39.902Z,97477.47
2022-08-19T20:05:07.796Z,97481.03
2022-08-19T20:07:54.357Z,97480.72
2022-08-19T20:10:21.743Z,97483.72
2022-08-19T20:12:48.746Z,97487.75
2022-08-19T20:15:16.156Z,97475.50
2022-08-19T20:17:43.169Z,97479.66
2022-08-19T20:20:14.054Z,97477.72
2022-08-19T20:22:44.243Z,97474.16
2022-08-19T20:25:12.968Z,97467.72
2022-08-19T20:27:41.770Z,97477.63
2022-08-19T20:30:19.413Z,97483.91
2022-08-19T20:32:49.581Z,97485.88
2022-08-19T20:35:19.923Z,97489.66
2022-08-19T20:37:47.686Z,97484.22
2022-08-19T20:40:21.585Z,97487.84
2022-08-19T20:42:50.800Z,97484.72
2022-08-19T20:45:33.149Z,97483.16
2022-08-19T20:48:02.986Z,97473.59
2022-08-19T20:50:31.992Z,97473.53
2022-08-19T20:52:59.350Z,97467.38
2022-08-19T20:55:27.438Z,97464.50
2022-08-19T20:57:55.621Z,97472.22
2022-08-19T21:00:23.048Z,97478.03
2022-08-19T21:02:50.271Z,97481.56
2022-08-19T21:05:17.237Z,97475.97
2022-08-19T21:07:44.925Z,97465.75
2022-08-19T21:10:12.206Z,97465.44
2022-08-19T21:12:40.675Z,97461.16
2022-08-19T21:15:09.085Z,97450.84
2022-08-19T21:17:36.664Z,97449.72
2022-08-19T21:20:07.116Z,97446.44
2022-08-19T21:22:34.788Z,97440.41
2022-08-19T21:25:03.173Z,97427.31
2022-08-19T21:27:30.607Z,97421.66
2022-08-19T21:29:57.908Z,97440.13
2022-08-19T21:32:26.950Z,97446.69
2022-08-19T21:34:54.010Z,97452.66
2022-08-19T21:37:25.585Z,97447.97
2022-08-19T21:39:56.438Z,97456.00
2022-08-19T21:42:24.659Z,97448.72
2022-08-19T21:44:52.095Z,97439.88
2022-08-19T21:47:19.296Z,97436.03
2022-08-19T21:49:46.962Z,97433.44
2022-08-19T21:52:14.000Z,97434.19
2022-08-19T21:54:41.215Z,97451.47
2022-08-19T21:57:10.769Z,97452.31
2022-08-19T21:59:43.758Z,97444.50
2022-08-19T22:02:21.562Z,97449.06
2022-08-19T22:04:53.028Z,97451.66
2022-08-19T22:07:22.139Z,97453.34
2022-08-19T22:09:50.889Z,97456.59
2022-08-19T22:12:28.761Z,97465.41
2022-08-19T22:14:57.943Z,97464.81
2022-08-19T22:17:27.533Z,97468.47
2022-08-19T22:19:56.527Z,97468.13
2022-08-19T22:22:28.799Z,97467.59
2022-08-19T22:25:04.074Z,97465.44
2022-08-19T22:27:31.524Z,97468.22
2022-08-19T22:29:58.518Z,97470.66
2022-08-19T22:32:28.551Z,97465.03
2022-08-19T22:34:59.083Z,97460.59
2022-08-19T22:37:29.831Z,97449.78
2022-08-19T22:39:57.159Z,97460.00
2022-08-19T22:42:30.780Z,97463.59
2022-08-19T22:45:00.573Z,97458.28
2022-08-19T22:47:29.448Z,97442.69
2022-08-19T22:49:59.805Z,97441.00
2022-08-19T22:52:27.147Z,97435.06
2022-08-19T22:54:59.249Z,97432.13
2022-08-19T22:57:27.521Z,97422.09
2022-08-19T22:59:55.465Z,97426.19
2022-08-19T23:02:38.488Z,97422.59
2022-08-19T23:05:10.966Z,97424.59
2022-08-19T23:07:39.187Z,97427.59
2022-08-19T23:10:10.650Z,97425.69
2022-08-19T23:12:41.412Z,97435.03
2022-08-19T23:15:20.339Z,97444.50
2022-08-19T23:17:47.626Z,97453.03
2022-08-19T23:20:16.375Z,97451.34
2022-08-19T23:22:48.231Z,97452.94
2022-08-19T23:25:22.306Z,97452.03
2022-08-19T23:28:09.410Z,97454.59
2022-08-19T23:30:39.046Z,97458.63
2022-08-19T23:33:15.328Z,97461.59
2022-08-19T23:35:44.614Z,97459.81
2022-08-19T23:38:11.620Z,97467.31
2022-08-19T23:40:39.886Z,97461.19
2022-08-19T23:43:08.122Z,97461.72
2022-08-19T23:45:39.593Z,97459.69
2022-08-19T23:48:08.212Z,97462.53
2022-08-19T23:50:36.624Z,97464.25
2022-08-19T23:53:04.234Z,97456.44
2022-08-19T23:55:36.033Z,97452.72
2022-08-19T23:58:04.340Z,97455.09
